Time;durP1;ratioP1;P1;durP2;ratioP2;P2;SDS_P1;SDS_P2;PMS_P1;PMS_P2;Temp;Humidity;BMP_temperature;BMP_pressure;BME280_temperature;BME280_humidity;BME280_pressure;Samples;Min_cycle;Max_cycle;Signal;HPM_P1;HPM_P2
2022/06/06 00:01:16;;;;;;;6.80;2.37;;;;;;;19.45;62.62;97628.94;5073310;28;20435;-73
2022/06/06 00:03:42;;;;;;;4.30;2.77;;;;;;;19.55;62.63;97628.53;5066574;28;20434;-70
2022/06/06 00:06:10;;;;;;;3.20;2.40;;;;;;;19.57;62.30;97631.81;5073727;28;20481;-71
2022/06/06 00:08:36;;;;;;;4.33;2.30;;;;;;;19.57;62.25;97626.50;5073442;28;20437;-70
2022/06/06 00:11:04;;;;;;;2.20;2.00;;;;;;;19.60;62.37;97629.56;5073606;28;20522;-71
2022/06/06 00:13:30;;;;;;;3.43;2.93;;;;;;;19.62;62.05;97629.41;5075103;28;20334;-72
2022/06/06 00:15:56;;;;;;;2.37;2.10;;;;;;;19.63;62.26;97631.03;5072643;28;20459;-72
2022/06/06 00:18:22;;;;;;;3.37;2.60;;;;;;;19.64;62.01;97619.38;5073063;28;20428;-73
2022/06/06 00:20:47;;;;;;;5.50;2.40;;;;;;;19.66;61.69;97614.66;5073541;28;20182;-71
2022/06/06 00:23:12;;;;;;;2.80;2.60;;;;;;;19.67;61.93;97620.81;5073607;28;20186;-71
2022/06/06 00:25:38;;;;;;;4.13;2.10;;;;;;;19.60;61.97;97615.47;5072098;28;20668;-71
2022/06/06 00:28:04;;;;;;;2.60;2.40;;;;;;;19.64;62.03;97616.72;5071342;28;20189;-71
2022/06/06 00:30:29;;;;;;;3.80;2.40;;;;;;;19.62;62.07;97637.38;5073422;28;20610;-73
2022/06/06 00:35:38;;;;;;;3.37;2.40;;;;;;;19.60;62.22;97626.13;5067646;28;20198;-72
2022/06/06 00:38:04;;;;;;;5.63;2.67;;;;;;;19.58;62.17;97625.50;5061589;28;20848;-73
2022/06/06 00:40:30;;;;;;;4.30;2.30;;;;;;;19.63;62.21;97607.09;5073352;28;20181;-72
2022/06/06 00:42:55;;;;;;;3.23;2.70;;;;;;;19.66;61.56;97609.34;5072108;28;20747;-71
2022/06/06 00:45:29;;;;;;;4.40;2.60;;;;;;;19.67;61.74;97616.28;5072691;28;21425;-72
2022/06/06 00:48:03;;;;;;;3.10;2.47;;;;;;;19.70;61.76;97613.25;5073309;28;20189;-71
2022/06/06 00:50:35;;;;;;;4.00;3.00;;;;;;;19.67;61.98;97604.84;5051487;28;20874;-72
2022/06/06 00:53:00;;;;;;;3.97;2.63;;;;;;;19.66;61.94;97606.69;5068231;28;20464;-72
2022/06/06 00:55:29;;;;;;;8.30;3.07;;;;;;;19.59;62.02;97609.34;5067023;28;20634;-71
2022/06/06 00:58:05;;;;;;;5.13;2.30;;;;;;;19.56;62.20;97603.59;5071134;28;20186;-73
2022/06/06 01:00:30;;;;;;;4.07;2.70;;;;;;;19.51;62.59;97608.72;5071866;28;20424;-72
2022/06/06 01:02:57;;;;;;;4.00;2.63;;;;;;;19.50;62.54;97610.53;5065046;28;20931;-71
2022/06/06 01:05:24;;;;;;;2.70;2.50;;;;;;;19.53;62.36;97601.38;5071143;28;20605;-72
2022/06/06 01:07:50;;;;;;;2.83;2.60;;;;;;;19.51;62.55;97590.91;5072563;28;20480;-71
2022/06/06 01:10:16;;;;;;;3.00;2.80;;;;;;;19.45;62.68;97583.75;5072690;28;20467;-72
2022/06/06 01:12:43;;;;;;;5.23;2.40;;;;;;;19.49;62.60;97583.16;5072970;28;20202;-72
2022/06/06 01:15:10;;;;;;;5.57;2.73;;;;;;;19.53;62.42;97580.09;5071413;28;20803;-73
2022/06/06 01:18:28;;;;;;;6.00;2.60;;;;;;;19.48;62.67;97575.34;5071188;28;20974;-73
2022/06/06 01:21:12;;;;;;;5.83;2.70;;;;;;;19.42;63.23;97574.31;5047943;28;20502;-72
2022/06/06 01:24:27;;;;;;;2.73;2.53;;;;;;;19.29;63.47;97568.97;5072656;28;20486;-72
2022/06/06 01:27:08;;;;;;;10.77;2.33;;;;;;;19.23;63.81;97573.22;5066733;28;20512;-72
2022/06/06 01:29:36;;;;;;;6.27;2.57;;;;;;;19.13;63.71;97578.09;5072648;28;20909;-72
2022/06/06 01:32:11;;;;;;;12.33;2.87;;;;;;;19.14;63.89;97567.31;5054438;28;20464;-72
2022/06/06 01:34:40;;;;;;;3.07;2.80;;;;;;;19.08;63.85;97576.03;5070340;28;20523;-71
2022/06/06 01:37:25;;;;;;;2.60;2.40;;;;;;;18.98;64.27;97571.09;5061236;28;20457;-72
2022/06/06 01:39:50;;;;;;;6.07;3.43;;;;;;;18.87;64.20;97563.66;5071277;28;20421;-73
2022/06/06 01:42:23;;;;;;;2.73;2.53;;;;;;;18.87;64.54;97566.31;5072120;28;20424;-71
2022/06/06 01:44:57;;;;;;;4.13;2.40;;;;;;;18.80;64.79;97563.63;5072136;28;20174;-72
2022/06/06 01:47:44;;;;;;;3.33;3.03;;;;;;;18.73;64.66;97557.47;5070426;28;20453;-71
2022/06/06 01:50:10;;;;;;;3.20;2.90;;;;;;;18.74;64.89;97559.09;5069387;28;20489;-72
2022/06/06 01:52:56;;;;;;;3.00;2.60;;;;;;;18.80;64.93;97560.97;5063975;28;20978;-72
2022/06/06 01:55:23;;;;;;;2.83;2.63;;;;;;;18.85;64.87;97552.41;5065709;28;20200;-72
2022/06/06 01:57:51;;;;;;;3.10;2.90;;;;;;;18.86;64.72;97551.38;5072207;28;20456;-72
2022/06/06 02:00:17;;;;;;;6.73;3.03;;;;;;;18.92;64.78;97547.13;5070055;28;20420;-71
2022/06/06 02:02:43;;;;;;;3.73;2.87;;;;;;;18.96;64.57;97543.94;5065842;28;20425;-72
2022/06/06 02:05:13;;;;;;;5.30;2.80;;;;;;;18.96;64.47;97551.91;5068856;28;20194;-71
2022/06/06 02:07:39;;;;;;;3.70;2.70;;;;;;;18.96;64.53;97556.38;5071182;28;20455;-72
2022/06/06 02:10:08;;;;;;;3.37;3.03;;;;;;;18.99;64.68;97561.31;5052633;28;20947;-71
2022/06/06 02:12:34;;;;;;;3.73;2.77;;;;;;;19.02;64.75;97558.25;5020406;28;21009;-71
2022/06/06 02:14:59;;;;;;;4.03;3.17;;;;;;;19.02;64.53;97568.88;5053443;28;20435;-72
2022/06/06 02:17:25;;;;;;;6.53;3.10;;;;;;;19.08;64.26;97565.41;5061419;28;20624;-71
2022/06/06 02:19:50;;;;;;;5.13;3.37;;;;;;;19.13;63.98;97559.50;5071449;28;20187;-71
2022/06/06 02:22:16;;;;;;;3.70;3.00;;;;;;;19.17;63.75;97547.47;5071097;28;20658;-71
2022/06/06 02:24:41;;;;;;;3.50;3.20;;;;;;;19.19;63.92;97556.06;5069653;28;20174;-71
2022/06/06 02:27:07;;;;;;;3.10;2.90;;;;;;;19.18;63.98;97549.91;5066861;28;20210;-70
2022/06/06 02:29:32;;;;;;;7.30;3.43;;;;;;;19.21;63.55;97546.06;5071060;28;20646;-71
2022/06/06 02:31:58;;;;;;;5.00;2.90;;;;;;;19.17;63.53;97540.31;5070773;28;20210;-72
2022/06/06 02:34:23;;;;;;;4.40;3.00;;;;;;;19.06;63.71;97540.09;5070944;28;20190;-71
2022/06/06 02:36:49;;;;;;;4.37;3.13;;;;;;;19.03;64.05;97546.59;5066731;28;20697;-71
2022/06/06 02:39:14;;;;;;;4.83;3.10;;;;;;;19.04;63.91;97537.59;5070949;28;20186;-71
2022/06/06 02:41:41;;;;;;;3.73;3.03;;;;;;;19.01;63.95;97538.03;5069823;28;20174;-72
2022/06/06 02:44:07;;;;;;;6.60;3.10;;;;;;;18.90;64.05;97538.56;5071090;28;20256;-71
2022/06/06 02:46:32;;;;;;;4.37;2.93;;;;;;;18.77;64.06;97550.75;5070764;28;20453;-70
2022/06/06 02:48:58;;;;;;;3.57;2.67;;;;;;;18.74;64.07;97548.50;5070995;28;20186;-70
2022/06/06 02:51:23;;;;;;;6.40;3.10;;;;;;;18.68;63.82;97554.56;5061723;28;20297;-71
2022/06/06 02:53:50;;;;;;;5.63;3.17;;;;;;;18.68;64.13;97559.88;5071133;28;20182;-73
2022/06/06 02:56:16;;;;;;;5.57;3.20;;;;;;;18.60;64.07;97565.34;5052642;28;20218;-72
2022/06/06 02:58:41;;;;;;;2.97;2.77;;;;;;;18.58;64.17;97568.22;5070999;28;20417;-72
2022/06/06 03:01:09;;;;;;;5.10;2.97;;;;;;;18.53;64.27;97575.94;5070733;28;20551;-72
2022/06/06 03:03:36;;;;;;;3.60;3.30;;;;;;;18.64;64.79;97582.53;5063736;28;20216;-71
2022/06/06 03:06:04;;;;;;;4.67;3.40;;;;;;;18.72;64.62;97574.41;5051907;28;20477;-72
2022/06/06 03:08:39;;;;;;;3.63;2.93;;;;;;;18.74;64.34;97575.03;5054170;28;20887;-70
2022/06/06 03:11:26;;;;;;;3.47;3.10;;;;;;;18.58;64.76;97579.63;5070229;28;20435;-72
2022/06/06 03:14:14;;;;;;;4.73;3.10;;;;;;;18.60;64.79;97591.91;5036631;28;20448;-72
2022/06/06 03:23:09;;;;;;;3.37;3.03;;;;;;;18.53;64.85;97599.81;5060504;28;20420;-70
2022/06/06 03:26:03;;;;;;;4.73;3.50;;;;;;;18.47;65.01;97605.88;5047120;28;20424;-70
2022/06/06 03:28:35;;;;;;;5.43;3.03;;;;;;;18.50;64.84;97608.16;5046135;28;20797;-71
2022/06/06 03:31:25;;;;;;;3.60;3.30;;;;;;;18.51;64.95;97597.38;5054316;28;20972;-69
2022/06/06 03:33:59;;;;;;;5.73;3.17;;;;;;;18.49;65.33;97610.00;5054204;28;20426;-72
2022/06/06 03:36:39;;;;;;;5.83;3.07;;;;;;;18.49;65.37;97604.69;5070031;28;20444;-71
2022/06/06 03:39:23;;;;;;;3.53;3.23;;;;;;;18.51;65.20;97601.84;5053139;28;20452;-70
2022/06/06 03:42:10;;;;;;;4.43;3.20;;;;;;;18.44;64.74;97600.97;5050245;28;20427;-71
2022/06/06 03:44:39;;;;;;;7.80;3.33;;;;;;;18.27;64.77;97599.41;5054427;28;20948;-70
2022/06/06 03:47:26;;;;;;;3.87;3.23;;;;;;;18.13;65.10;97605.63;5053477;28;20461;-70
2022/06/06 03:50:21;;;;;;;3.50;3.20;;;;;;;18.14;65.15;97607.28;5059187;28;20417;-70
2022/06/06 03:52:53;;;;;;;7.80;3.53;;;;;;;18.18;65.08;97611.19;5036033;28;20465;-71
2022/06/06 03:55:51;;;;;;;5.07;3.30;;;;;;;18.21;65.44;97607.34;5055514;28;20465;-71
2022/06/06 03:58:17;;;;;;;4.47;3.60;;;;;;;18.24;65.09;97605.13;5053668;28;20429;-72
2022/06/06 04:00:45;;;;;;;5.17;3.40;;;;;;;18.27;65.34;97606.56;5053864;28;20429;-70
2022/06/06 04:03:12;;;;;;;3.90;3.50;;;;;;;18.31;65.06;97620.25;5057678;28;20429;-72
2022/06/06 04:05:38;;;;;;;3.60;3.30;;;;;;;18.33;65.11;97613.75;5060389;28;20425;-72
2022/06/06 04:08:04;;;;;;;10.10;3.30;;;;;;;18.31;65.26;97609.66;5051586;28;20504;-72
2022/06/06 04:11:14;;;;;;;3.67;3.37;;;;;;;18.35;65.34;97616.22;5043649;28;20793;-70
2022/06/06 04:13:52;;;;;;;5.00;3.63;;;;;;;18.37;65.01;97612.34;5055599;28;20520;-71
2022/06/06 04:16:27;;;;;;;5.00;3.33;;;;;;;18.38;65.40;97621.16;5052593;28;20944;-72
2022/06/06 04:19:01;;;;;;;4.07;3.43;;;;;;;18.41;65.20;97618.91;5061990;28;20776;-73
2022/06/06 04:21:36;;;;;;;8.23;3.70;;;;;;;18.39;65.58;97615.63;5061877;28;20421;-72
2022/06/06 04:24:04;;;;;;;9.47;4.33;;;;;;;18.38;65.74;97610.53;5047607;28;20941;-71
2022/06/06 04:26:42;;;;;;;4.83;4.07;;;;;;;18.40;65.61;97609.31;5053467;28;20441;-71
2022/06/06 04:29:14;;;;;;;7.40;5.30;;;;;;;18.35;65.92;97614.38;5052579;28;20469;-71
2022/06/06 04:31:55;;;;;;;8.10;6.27;;;;;;;18.33;66.26;97615.59;5052081;28;20476;-69
2022/06/06 04:34:39;;;;;;;11.23;6.60;;;;;;;18.37;66.13;97606.22;5059921;28;20437;-72
2022/06/06 04:37:18;;;;;;;5.17;4.60;;;;;;;18.45;66.01;97597.31;5047943;28;20888;-70
2022/06/06 04:40:35;;;;;;;3.90;3.50;;;;;;;18.48;65.80;97604.88;5051227;28;20440;-70
2022/06/06 04:43:19;;;;;;;4.70;4.30;;;;;;;18.51;65.90;97605.31;5049045;28;20950;-70
2022/06/06 04:46:14;;;;;;;8.13;4.80;;;;;;;18.56;66.17;97613.50;5048001;28;20471;-72
2022/06/06 04:48:39;;;;;;;4.00;3.70;;;;;;;18.69;66.05;97619.91;5044770;28;20466;-71
2022/06/06 04:51:05;;;;;;;8.57;6.57;;;;;;;18.73;66.12;97619.34;5051461;28;20430;-72
2022/06/06 04:53:32;;;;;;;6.60;4.13;;;;;;;18.78;66.41;97616.09;5059070;28;20475;-71
2022/06/06 04:55:59;;;;;;;5.13;4.30;;;;;;;18.83;66.48;97626.97;5050951;28;20445;-71
2022/06/06 04:58:29;;;;;;;4.40;4.00;;;;;;;18.87;66.37;97620.25;5051710;28;20844;-71
2022/06/06 05:00:54;;;;;;;7.00;4.40;;;;;;;18.91;66.56;97618.03;5051451;28;21117;-70
2022/06/06 05:03:20;;;;;;;4.27;3.87;;;;;;;18.93;66.68;97620.47;5066518;28;20436;-71
2022/06/06 05:05:50;;;;;;;4.53;3.90;;;;;;;18.99;66.83;97622.38;5052525;28;20187;-70
2022/06/06 05:08:30;;;;;;;10.27;5.40;;;;;;;19.02;66.90;97624.66;5050458;28;20183;-72
2022/06/06 05:11:25;;;;;;;6.70;4.23;;;;;;;19.05;67.16;97624.25;5055557;28;20420;-71
2022/06/06 05:14:11;;;;;;;4.33;3.93;;;;;;;19.17;67.16;97624.53;5051056;28;20556;-73
2022/06/06 05:16:49;;;;;;;5.50;4.47;;;;;;;19.22;67.16;97616.75;5039639;28;20473;-71
2022/06/06 05:19:17;;;;;;;5.90;4.07;;;;;;;19.37;66.92;97626.44;5050658;28;20453;-70
2022/06/06 05:22:18;;;;;;;5.77;3.80;;;;;;;19.35;66.94;97621.31;5051095;28;20459;-72
2022/06/06 05:25:02;;;;;;;4.60;3.40;;;;;;;19.45;66.53;97624.41;5034343;28;20433;-71
2022/06/06 05:28:16;;;;;;;5.80;4.30;;;;;;;19.51;66.57;97627.31;5043463;28;20846;-72
2022/06/06 05:30:47;;;;;;;3.87;3.53;;;;;;;19.56;66.56;97635.50;5040193;28;20437;-70
2022/06/06 05:33:46;;;;;;;5.67;3.83;;;;;;;19.57;67.09;97632.66;5051414;28;20497;-71
2022/06/06 05:36:27;;;;;;;9.17;3.90;;;;;;;19.63;66.47;97631.03;5032397;28;20512;-71
2022/06/06 05:39:05;;;;;;;3.83;3.53;;;;;;;19.65;66.57;97639.63;5050565;28;20429;-71
2022/06/06 05:41:43;;;;;;;4.00;3.60;;;;;;;19.72;66.48;97634.34;5050313;28;20451;-73
2022/06/06 05:44:32;;;;;;;4.20;3.90;;;;;;;19.79;66.22;97638.63;5051792;28;20529;-70
2022/06/06 05:47:29;;;;;;;6.97;3.67;;;;;;;19.93;66.37;97646.66;5051773;28;20430;-73
2022/06/06 05:49:58;;;;;;;6.10;3.10;;;;;;;20.14;66.15;97636.88;5024594;28;20533;-71
2022/06/06 05:53:01;;;;;;;4.10;3.70;;;;;;;20.28;65.74;97635.88;5050832;28;20521;-71
2022/06/06 05:55:42;;;;;;;3.80;3.50;;;;;;;20.47;65.43;97641.41;5051333;28;20413;-71
2022/06/06 05:58:22;;;;;;;4.10;3.70;;;;;;;20.54;64.65;97643.03;5050031;28;20484;-72
2022/06/06 06:01:24;;;;;;;8.30;3.80;;;;;;;20.67;64.22;97646.72;5047995;28;21062;-69
2022/06/06 06:04:23;;;;;;;3.50;3.20;;;;;;;20.83;63.92;97650.81;5053226;28;20414;-71
2022/06/06 06:07:06;;;;;;;4.47;3.77;;;;;;;20.96;63.83;97648.13;5046108;28;20461;-70
2022/06/06 06:09:58;;;;;;;5.73;3.90;;;;;;;21.07;62.99;97646.69;5042793;28;20499;-71
2022/06/06 06:12:42;;;;;;;5.90;3.77;;;;;;;21.17;61.49;97648.91;5049465;28;20472;-69
2022/06/06 06:15:22;;;;;;;7.80;3.30;;;;;;;21.28;61.01;97653.59;5051287;28;20920;-71
2022/06/06 06:17:49;;;;;;;4.63;3.60;;;;;;;21.38;61.27;97660.31;5049817;28;20452;-71
2022/06/06 06:20:18;;;;;;;4.40;3.07;;;;;;;21.43;60.54;97655.97;5051436;28;20429;-71
2022/06/06 06:22:48;;;;;;;5.00;3.50;;;;;;;21.46;60.54;97660.06;5050168;28;20487;-70
2022/06/06 06:25:15;;;;;;;3.50;3.20;;;;;;;21.49;60.52;97654.31;5049864;28;20901;-71
2022/06/06 06:27:42;;;;;;;4.90;3.80;;;;;;;21.54;60.78;97654.50;5049524;28;20449;-72
2022/06/06 06:30:08;;;;;;;4.17;3.70;;;;;;;21.61;60.88;97660.66;5046631;28;20777;-72
2022/06/06 06:32:45;;;;;;;3.90;3.40;;;;;;;21.68;60.96;97657.13;5051023;28;20473;-72
2022/06/06 06:35:23;;;;;;;4.50;3.70;;;;;;;21.58;60.33;97671.69;5054953;28;20439;-71
2022/06/06 06:38:16;;;;;;;3.77;3.47;;;;;;;21.54;59.74;97667.84;5049447;28;20448;-70
2022/06/06 06:41:03;;;;;;;5.83;3.50;;;;;;;21.68;59.95;97681.13;5045036;28;20768;-71
2022/06/06 06:43:50;;;;;;;5.30;3.70;;;;;;;21.68;60.04;97675.78;5043008;28;20504;-71
2022/06/06 06:46:22;;;;;;;4.13;3.73;;;;;;;21.74;59.71;97678.44;5050997;28;20959;-71
2022/06/06 06:48:51;;;;;;;4.10;3.20;;;;;;;21.82;58.90;97684.56;5032293;28;20425;-71
2022/06/06 06:51:33;;;;;;;3.87;3.50;;;;;;;21.86;58.40;97696.44;5033238;28;20461;-70
2022/06/06 06:54:34;;;;;;;5.40;3.80;;;;;;;22.02;58.34;97700.47;5033970;28;20428;-70
2022/06/06 06:57:25;;;;;;;4.20;3.70;;;;;;;22.18;58.18;97699.13;5046795;28;20852;-71
2022/06/06 06:59:50;;;;;;;5.33;3.33;;;;;;;22.32;58.25;97695.34;5041987;28;20539;-72
2022/06/06 07:08:32;;;;;;;4.17;3.37;;;;;;;22.57;55.38;97699.09;5050021;28;20432;-72
2022/06/06 07:11:07;;;;;;;3.73;3.43;;;;;;;22.31;56.17;97699.06;5049621;28;20769;-72
2022/06/06 07:13:40;;;;;;;4.17;3.77;;;;;;;22.58;55.54;97692.72;5043068;28;20512;-71
2022/06/06 07:16:20;;;;;;;4.33;3.37;;;;;;;22.66;54.36;97690.59;5049434;28;20449;-72
2022/06/06 07:18:50;;;;;;;3.87;3.50;;;;;;;22.84;54.55;97681.81;5046743;28;20424;-70
2022/06/06 07:21:15;;;;;;;3.60;2.83;;;;;;;22.98;53.51;97682.50;5049013;28;20422;-72
2022/06/06 07:23:42;;;;;;;3.30;3.00;;;;;;;23.02;53.61;97680.19;5049154;28;20430;-71
2022/06/06 07:26:10;;;;;;;4.13;3.13;;;;;;;23.14;53.89;97674.94;5049951;28;20218;-71
2022/06/06 07:28:35;;;;;;;5.90;3.33;;;;;;;23.28;53.86;97675.66;5050462;28;20425;-70
2022/06/06 07:31:20;;;;;;;5.07;3.33;;;;;;;23.28;53.08;97676.44;5046584;28;20483;-71
2022/06/06 07:33:49;;;;;;;3.00;2.70;;;;;;;23.24;51.69;97675.28;5048736;28;20209;-71
2022/06/06 07:36:55;;;;;;;3.50;3.10;;;;;;;23.16;51.81;97676.34;5053177;28;20560;-72
2022/06/06 07:39:40;;;;;;;4.20;3.00;;;;;;;23.21;51.32;97681.06;5040645;28;20436;-72
2022/06/06 07:42:08;;;;;;;3.83;2.90;;;;;;;23.29;51.13;97670.06;5048988;28;20426;-70
2022/06/06 07:44:33;;;;;;;3.60;3.30;;;;;;;23.33;51.57;97667.75;5050550;28;20443;-73
2022/06/06 07:47:11;;;;;;;3.13;2.93;;;;;;;23.42;50.72;97660.25;5050096;28;20459;-74
2022/06/06 07:49:51;;;;;;;4.73;3.27;;;;;;;23.65;49.77;97666.75;5042327;28;20664;-72
2022/06/06 07:52:38;;;;;;;3.00;2.70;;;;;;;23.62;49.25;97668.88;5049121;28;20551;-71
2022/06/06 07:55:18;;;;;;;3.30;3.00;;;;;;;24.02;49.21;97662.19;5050060;28;20425;-71
2022/06/06 07:57:54;;;;;;;5.63;2.70;;;;;;;24.12;47.15;97668.81;5048795;28;20488;-72
2022/06/06 08:00:28;;;;;;;2.90;2.70;;;;;;;24.30;47.66;97659.91;5045068;28;20434;-71
2022/06/06 08:03:08;;;;;;;2.97;2.67;;;;;;;24.47;47.68;97652.84;5050609;28;20584;-72
2022/06/06 08:05:37;;;;;;;3.37;3.07;;;;;;;24.54;47.08;97658.09;5042915;28;20960;-70
2022/06/06 08:08:37;;;;;;;4.67;3.10;;;;;;;24.52;46.25;97663.66;5052245;28;20451;-72
2022/06/06 08:11:10;;;;;;;2.90;2.57;;;;;;;24.56;46.31;97657.84;5052455;28;20414;-72
2022/06/06 08:13:49;;;;;;;2.73;2.53;;;;;;;24.73;46.33;97658.84;5053146;28;20417;-72
2022/06/06 08:16:17;;;;;;;3.53;2.70;;;;;;;24.81;45.50;97661.16;5052109;28;20460;-71
2022/06/06 08:19:20;;;;;;;2.90;2.30;;;;;;;24.94;44.82;97649.38;5053430;28;20433;-73
2022/06/06 08:21:48;;;;;;;3.20;2.60;;;;;;;25.09;43.86;97648.06;5048200;28;20903;-70
2022/06/06 08:24:26;;;;;;;2.63;2.20;;;;;;;25.22;43.35;97650.50;5053485;28;20483;-72
2022/06/06 08:26:53;;;;;;;2.53;2.20;;;;;;;25.26;41.82;97654.34;5052174;28;20454;-72
2022/06/06 08:29:19;;;;;;;2.60;2.20;;;;;;;25.44;41.32;97641.88;5051832;28;20487;-70
2022/06/06 08:31:45;;;;;;;4.83;2.17;;;;;;;25.63;41.23;97644.34;5049509;28;20465;-69
2022/06/06 08:34:11;;;;;;;2.83;2.50;;;;;;;25.83;40.66;97643.91;5052532;28;20687;-70
2022/06/06 08:36:40;;;;;;;2.20;2.00;;;;;;;26.04;41.20;97651.28;5055715;28;20199;-69
2022/06/06 08:39:41;;;;;;;3.70;1.90;;;;;;;26.31;40.43;97644.50;5052993;28;20908;-69
2022/06/06 08:42:12;;;;;;;2.30;2.10;;;;;;;26.40;38.97;97652.97;5049887;28;20515;-72
2022/06/06 08:45:01;;;;;;;1.87;1.77;;;;;;;26.20;37.72;97655.09;5053121;28;20425;-70
2022/06/06 08:47:29;;;;;;;3.07;2.10;;;;;;;26.03;38.73;97638.91;5044283;28;20625;-70
2022/06/06 08:50:47;;;;;;;4.73;2.33;;;;;;;26.06;39.29;97643.78;5052899;28;20539;-71
2022/06/06 08:53:44;;;;;;;3.93;1.73;;;;;;;25.86;39.14;97643.44;5052815;28;20468;-71
2022/06/06 08:56:54;;;;;;;2.07;1.87;;;;;;;26.03;38.62;97638.09;5051417;28;20456;-71
2022/06/06 08:59:35;;;;;;;2.80;1.80;;;;;;;26.15;38.45;97640.75;5047007;28;20433;-71
2022/06/06 09:02:26;;;;;;;3.13;2.00;;;;;;;26.33;38.18;97631.66;5049108;28;20420;-70
2022/06/06 09:05:03;;;;;;;3.70;1.60;;;;;;;26.65;38.68;97639.13;5051352;28;20480;-71
2022/06/06 09:08:00;;;;;;;4.37;2.07;;;;;;;26.83;38.00;97628.13;5044288;28;20453;-70
2022/06/06 09:11:04;;;;;;;2.60;1.53;;;;;;;27.10;36.31;97629.28;5050851;28;20425;-71
2022/06/06 09:13:48;;;;;;;2.00;1.90;;;;;;;27.46;36.78;97620.88;5044979;28;20440;-71
2022/06/06 09:16:38;;;;;;;2.90;1.60;;;;;;;27.70;35.89;97619.50;5052292;28;20936;-71
2022/06/06 09:19:33;;;;;;;2.17;1.97;;;;;;;27.66;35.24;97623.78;5052351;28;20429;-71
2022/06/06 09:22:11;;;;;;;2.13;1.63;;;;;;;27.58;34.84;97622.34;5052321;28;20441;-73
2022/06/06 09:25:03;;;;;;;2.23;1.67;;;;;;;27.49;35.56;97620.34;5041381;28;20410;-71
2022/06/06 09:27:53;;;;;;;2.67;1.80;;;;;;;27.43;35.49;97612.19;5042488;28;20858;-71
2022/06/06 09:30:40;;;;;;;3.03;1.70;;;;;;;27.55;34.65;97608.59;5050890;28;20433;-70
2022/06/06 09:33:33;;;;;;;1.60;1.50;;;;;;;27.79;33.78;97614.47;5051852;28;20461;-72
2022/06/06 09:36:23;;;;;;;3.00;1.70;;;;;;;28.09;34.13;97618.53;5055905;28;20765;-71
2022/06/06 09:39:13;;;;;;;1.90;1.60;;;;;;;28.44;34.04;97605.63;5041940;28;20430;-71
2022/06/06 09:41:52;;;;;;;2.47;1.73;;;;;;;28.63;34.29;97600.63;5043740;28;20414;-70
2022/06/06 09:44:25;;;;;;;3.00;1.30;;;;;;;28.28;33.79;97602.00;5050132;28;20425;-72
2022/06/06 09:47:10;;;;;;;2.03;1.60;;;;;;;27.94;34.08;97608.44;5050384;28;20549;-71
2022/06/06 09:49:56;;;;;;;2.90;1.27;;;;;;;27.81;32.71;97609.66;5044904;28;20436;-71
2022/06/06 09:52:43;;;;;;;1.90;1.43;;;;;;;27.95;33.07;97607.38;5050496;28;20473;-71
2022/06/06 09:59:04;;;;;;;2.70;1.60;;;;;;;28.41;32.81;97606.13;5047108;28;20544;-71
2022/06/06 10:02:01;;;;;;;1.60;1.40;;;;;;;28.39;32.02;97598.31;5048469;28;20436;-72
2022/06/06 10:05:03;;;;;;;3.73;1.70;;;;;;;28.34;32.39;97603.66;5060081;28;21002;-72
2022/06/06 10:07:53;;;;;;;2.70;2.00;;;;;;;28.35;32.84;97608.78;5045048;28;20948;-71
2022/06/06 10:10:45;;;;;;;2.57;1.70;;;;;;;28.23;32.97;97596.56;5051861;28;20414;-71
2022/06/06 10:13:46;;;;;;;4.17;1.57;;;;;;;28.15;33.47;97589.78;5050425;28;20500;-72
2022/06/06 10:17:00;;;;;;;5.63;2.20;;;;;;;28.40;32.76;97585.63;5049632;28;20444;-72
2022/06/06 10:19:38;;;;;;;3.70;1.80;;;;;;;28.45;32.79;97588.38;5045566;28;20429;-71
2022/06/06 10:22:28;;;;;;;1.57;1.47;;;;;;;28.32;32.84;97584.22;5050107;28;20435;-72
2022/06/06 10:25:03;;;;;;;3.53;2.23;;;;;;;28.62;33.12;97589.00;5051328;28;20429;-71
2022/06/06 10:27:48;;;;;;;2.73;1.87;;;;;;;29.06;32.50;97577.13;5045481;28;20447;-71
2022/06/06 10:30:22;;;;;;;5.87;1.80;;;;;;;29.41;32.62;97572.16;5047408;28;20461;-72
2022/06/06 10:33:11;;;;;;;1.90;1.70;;;;;;;28.74;32.95;97569.16;5049949;28;20826;-71
2022/06/06 10:36:01;;;;;;;11.10;2.00;;;;;;;28.94;33.47;97573.84;5047695;28;20434;-71
2022/06/06 10:38:41;;;;;;;3.83;1.60;;;;;;;28.84;33.25;97574.63;5049503;28;20833;-71
2022/06/06 10:41:25;;;;;;;5.33;1.83;;;;;;;28.66;33.03;97582.03;5050921;28;20426;-71
2022/06/06 10:44:37;;;;;;;2.07;1.80;;;;;;;28.51;33.52;97571.16;5050999;28;20421;-71
2022/06/06 10:47:22;;;;;;;5.83;1.80;;;;;;;28.29;33.96;97574.78;5045861;28;20503;-72
2022/06/06 10:50:16;;;;;;;2.13;1.50;;;;;;;28.08;32.25;97583.78;5049865;28;20433;-71
2022/06/06 10:53:09;;;;;;;2.17;1.60;;;;;;;27.99;32.69;97570.75;5041072;28;20469;-72
2022/06/06 10:55:59;;;;;;;3.33;1.50;;;;;;;27.76;32.41;97566.53;5043875;28;20425;-72
2022/06/06 10:58:54;;;;;;;2.03;1.40;;;;;;;27.83;32.82;97567.13;5049003;28;20445;-71
2022/06/06 11:02:05;;;;;;;2.30;1.70;;;;;;;28.10;32.67;97557.44;5046706;28;20495;-72
2022/06/06 11:05:07;;;;;;;2.70;1.90;;;;;;;28.34;32.58;97555.97;5056960;28;20426;-71
2022/06/06 11:07:51;;;;;;;1.70;1.60;;;;;;;28.33;32.21;97556.22;5043199;28;20493;-72
2022/06/06 11:11:01;;;;;;;2.63;1.80;;;;;;;27.93;32.99;97558.31;5050788;28;20429;-71
2022/06/06 11:13:46;;;;;;;3.17;1.80;;;;;;;27.95;33.33;97541.91;5041644;28;20483;-71
2022/06/06 11:16:29;;;;;;;2.47;1.83;;;;;;;27.97;33.26;97546.00;5049321;28;20808;-71
2022/06/06 11:19:13;;;;;;;2.30;1.83;;;;;;;27.95;33.79;97553.50;5050749;28;20927;-72
2022/06/06 11:22:09;;;;;;;1.80;1.70;;;;;;;27.66;33.70;97550.28;5044267;28;20819;-71
2022/06/06 11:24:50;;;;;;;3.27;2.07;;;;;;;27.71;33.60;97544.94;5043787;28;20908;-71
2022/06/06 11:27:30;;;;;;;1.90;1.70;;;;;;;27.72;34.89;97547.38;5050038;28;21074;-71
2022/06/06 11:30:21;;;;;;;1.40;1.30;;;;;;;27.65;33.48;97543.28;5045951;28;20434;-72
2022/06/06 11:33:09;;;;;;;2.63;1.97;;;;;;;27.76;33.05;97542.31;5045195;28;20757;-71
2022/06/06 11:36:11;;;;;;;1.90;1.70;;;;;;;27.60;33.28;97541.31;5047115;28;20437;-71
2022/06/06 11:39:13;;;;;;;3.43;1.83;;;;;;;27.56;32.96;97540.22;5049105;28;20989;-71
2022/06/06 11:41:53;;;;;;;2.23;2.03;;;;;;;27.31;33.25;97538.06;5050415;28;20970;-71
2022/06/06 11:44:34;;;;;;;3.60;1.97;;;;;;;27.28;33.58;97532.09;5052535;28;20449;-72
2022/06/06 11:47:25;;;;;;;2.10;2.00;;;;;;;27.20;34.31;97532.56;5053920;28;20448;-71
2022/06/06 11:50:12;;;;;;;3.93;2.07;;;;;;;27.16;33.97;97525.25;5048028;28;20483;-71
2022/06/06 11:53:01;;;;;;;2.37;1.93;;;;;;;27.21;33.94;97533.41;5052790;28;20461;-71
2022/06/06 11:56:04;;;;;;;6.50;1.80;;;;;;;27.15;34.12;97529.84;5052751;28;20507;-71
2022/06/06 11:59:01;;;;;;;7.33;1.50;;;;;;;27.31;33.98;97536.19;5046088;28;20456;-71
2022/06/06 12:01:43;;;;;;;1.97;1.80;;;;;;;27.30;33.92;97529.19;5049995;28;20892;-72
2022/06/06 12:04:39;;;;;;;1.70;1.60;;;;;;;27.27;33.51;97533.19;5061021;28;20919;-71
2022/06/06 12:07:23;;;;;;;2.90;1.80;;;;;;;27.14;33.15;97526.31;5053540;28;20472;-71
2022/06/06 12:10:11;;;;;;;3.03;1.57;;;;;;;27.00;33.55;97517.00;5053021;28;20425;-70
2022/06/06 12:13:25;;;;;;;1.70;1.60;;;;;;;26.88;34.20;97525.22;5050097;28;20467;-71
2022/06/06 12:16:00;;;;;;;1.80;1.70;;;;;;;26.73;33.66;97523.09;5047199;28;20481;-71
2022/06/06 12:18:48;;;;;;;1.63;1.53;;;;;;;26.71;34.47;97519.88;5052071;28;20425;-71
2022/06/06 12:21:35;;;;;;;3.03;2.00;;;;;;;26.68;33.87;97521.16;5052512;28;20460;-71
2022/06/06 12:24:25;;;;;;;1.97;1.80;;;;;;;26.71;33.59;97514.50;5052265;28;20469;-72
2022/06/06 12:26:56;;;;;;;2.13;1.67;;;;;;;26.82;33.32;97508.22;5048680;28;20454;-71
2022/06/06 12:30:00;;;;;;;3.43;1.70;;;;;;;27.27;33.13;97506.28;5053389;28;20991;-71
2022/06/06 12:32:34;;;;;;;18.53;1.53;;;;;;;27.79;32.61;97497.91;5052840;28;20456;-71
2022/06/06 12:35:05;;;;;;;1.60;1.50;;;;;;;28.02;31.64;97494.84;5055831;28;20451;-72
2022/06/06 12:37:39;;;;;;;1.80;1.50;;;;;;;28.43;31.93;97493.50;5048175;28;20447;-71
2022/06/06 12:40:28;;;;;;;5.90;1.83;;;;;;;28.45;30.57;97488.66;5038133;28;20439;-72
2022/06/06 12:43:05;;;;;;;1.63;1.50;;;;;;;28.71;30.53;97486.09;5052022;28;20433;-72
2022/06/06 12:45:46;;;;;;;4.57;1.80;;;;;;;28.92;30.40;97487.00;5045638;28;20425;-71
2022/06/06 12:48:26;;;;;;;2.30;1.37;;;;;;;29.07;29.88;97483.53;5050998;28;20437;-73
2022/06/06 12:51:29;;;;;;;3.83;1.80;;;;;;;28.89;29.77;97476.75;5053223;28;20889;-72